sensor_id;sensor_type;location;lat;lon;timestamp;P1;durP1;ratioP1;P2;durP2;ratioP2
20890;SDS011;10605;52.968;8.844;2024-02-26T00:01:55;43.72;;;16.80;;
20890;SDS011;10605;52.968;8.844;2024-02-26T00:04:21;16.92;;;15.13;;
20890;SDS011;10605;52.968;8.844;2024-02-26T00:06:47;20.33;;;16.63;;
20890;SDS011;10605;52.968;8.844;2024-02-26T00:09:15;43.85;;;18.15;;
20890;SDS011;10605;52.968;8.844;2024-02-26T00:11:41;39.63;;;17.08;;
20890;SDS011;10605;52.968;8.844;2024-02-26T00:14:06;21.92;;;17.05;;
20890;SDS011;10605;52.968;8.844;2024-02-26T00:16:32;18.25;;;16.15;;
20890;SDS011;10605;52.968;8.844;2024-02-26T00:18:58;20.58;;;18.30;;
20890;SDS011;10605;52.968;8.844;2024-02-26T00:21:24;23.13;;;19.17;;
20890;SDS011;10605;52.968;8.844;2024-02-26T00:23:49;22.88;;;19.27;;
20890;SDS011;10605;52.968;8.844;2024-02-26T00:26:18;22.15;;;18.50;;
20890;SDS011;10605;52.968;8.844;2024-02-26T00:28:44;25.45;;;19.70;;
20890;SDS011;10605;52.968;8.844;2024-02-26T00:31:09;27.42;;;20.48;;
20890;SDS011;10605;52.968;8.844;2024-02-26T00:33:35;24.42;;;19.70;;
20890;SDS011;10605;52.968;8.844;2024-02-26T00:36:01;24.85;;;20.38;;
20890;SDS011;10605;52.968;8.844;2024-02-26T00:38:27;27.70;;;21.35;;
20890;SDS011;10605;52.968;8.844;2024-02-26T00:40:53;47.88;;;20.42;;
20890;SDS011;10605;52.968;8.844;2024-02-26T00:43:18;23.85;;;19.55;;
20890;SDS011;10605;52.968;8.844;2024-02-26T00:45:44;23.58;;;19.08;;
20890;SDS011;10605;52.968;8.844;2024-02-26T00:48:11;21.88;;;18.98;;
20890;SDS011;10605;52.968;8.844;2024-02-26T00:50:38;24.92;;;18.33;;
20890;SDS011;10605;52.968;8.844;2024-02-26T00:53:04;23.30;;;18.70;;
20890;SDS011;10605;52.968;8.844;2024-02-26T00:55:30;20.35;;;17.95;;
20890;SDS011;10605;52.968;8.844;2024-02-26T00:57:56;20.00;;;16.55;;
20890;SDS011;10605;52.968;8.844;2024-02-26T01:00:22;20.33;;;16.75;;
20890;SDS011;10605;52.968;8.844;2024-02-26T01:02:47;19.75;;;16.40;;
20890;SDS011;10605;52.968;8.844;2024-02-26T01:05:13;20.42;;;16.63;;
20890;SDS011;10605;52.968;8.844;2024-02-26T01:07:40;18.02;;;16.10;;
20890;SDS011;10605;52.968;8.844;2024-02-26T01:10:06;17.80;;;15.90;;
20890;SDS011;10605;52.968;8.844;2024-02-26T01:12:35;17.50;;;15.27;;
20890;SDS011;10605;52.968;8.844;2024-02-26T01:15:01;17.13;;;15.32;;
20890;SDS011;10605;52.968;8.844;2024-02-26T01:17:30;22.08;;;16.70;;
20890;SDS011;10605;52.968;8.844;2024-02-26T01:19:56;25.58;;;16.35;;
20890;SDS011;10605;52.968;8.844;2024-02-26T01:22:22;19.95;;;17.13;;
20890;SDS011;10605;52.968;8.844;2024-02-26T01:24:48;22.63;;;17.38;;
20890;SDS011;10605;52.968;8.844;2024-02-26T01:27:13;18.27;;;16.17;;
20890;SDS011;10605;52.968;8.844;2024-02-26T01:29:41;17.80;;;15.90;;
20890;SDS011;10605;52.968;8.844;2024-02-26T01:32:07;17.67;;;15.77;;
20890;SDS011;10605;52.968;8.844;2024-02-26T01:34:32;19.42;;;16.33;;
20890;SDS011;10605;52.968;8.844;2024-02-26T01:36:58;19.63;;;17.48;;
20890;SDS011;10605;52.968;8.844;2024-02-26T01:39:24;22.15;;;16.88;;
20890;SDS011;10605;52.968;8.844;2024-02-26T01:41:50;21.77;;;15.82;;
20890;SDS011;10605;52.968;8.844;2024-02-26T01:44:16;18.98;;;16.48;;
20890;SDS011;10605;52.968;8.844;2024-02-26T01:46:41;21.13;;;16.60;;
20890;SDS011;10605;52.968;8.844;2024-02-26T01:49:08;20.13;;;16.95;;
20890;SDS011;10605;52.968;8.844;2024-02-26T01:51:37;21.92;;;16.50;;
20890;SDS011;10605;52.968;8.844;2024-02-26T01:54:04;18.42;;;15.73;;
20890;SDS011;10605;52.968;8.844;2024-02-26T01:56:31;21.45;;;16.65;;
20890;SDS011;10605;52.968;8.844;2024-02-26T01:58:57;21.40;;;16.38;;
20890;SDS011;10605;52.968;8.844;2024-02-26T02:01:27;19.65;;;16.25;;
20890;SDS011;10605;52.968;8.844;2024-02-26T02:03:55;17.80;;;15.20;;
20890;SDS011;10605;52.968;8.844;2024-02-26T02:06:22;19.30;;;16.40;;
20890;SDS011;10605;52.968;8.844;2024-02-26T02:08:48;18.50;;;15.48;;
20890;SDS011;10605;52.968;8.844;2024-02-26T02:11:14;19.58;;;16.48;;
20890;SDS011;10605;52.968;8.844;2024-02-26T02:13:41;17.13;;;14.82;;
20890;SDS011;10605;52.968;8.844;2024-02-26T02:16:07;16.52;;;14.68;;
20890;SDS011;10605;52.968;8.844;2024-02-26T02:18:33;17.58;;;15.35;;
20890;SDS011;10605;52.968;8.844;2024-02-26T02:21:02;20.20;;;17.00;;
20890;SDS011;10605;52.968;8.844;2024-02-26T02:23:28;15.85;;;14.25;;
20890;SDS011;10605;52.968;8.844;2024-02-26T02:25:54;23.83;;;18.58;;
20890;SDS011;10605;52.968;8.844;2024-02-26T02:28:21;27.20;;;19.70;;
20890;SDS011;10605;52.968;8.844;2024-02-26T02:30:47;24.55;;;19.58;;
20890;SDS011;10605;52.968;8.844;2024-02-26T02:33:14;22.48;;;19.02;;
20890;SDS011;10605;52.968;8.844;2024-02-26T02:35:41;30.92;;;21.17;;
20890;SDS011;10605;52.968;8.844;2024-02-26T02:38:06;29.73;;;21.55;;
20890;SDS011;10605;52.968;8.844;2024-02-26T02:40:32;28.95;;;22.05;;
20890;SDS011;10605;52.968;8.844;2024-02-26T02:42:58;30.83;;;22.77;;
20890;SDS011;10605;52.968;8.844;2024-02-26T02:45:27;31.75;;;21.98;;
20890;SDS011;10605;52.968;8.844;2024-02-26T02:47:53;30.65;;;21.88;;
20890;SDS011;10605;52.968;8.844;2024-02-26T02:50:19;30.52;;;21.92;;
20890;SDS011;10605;52.968;8.844;2024-02-26T02:52:44;30.38;;;22.58;;
20890;SDS011;10605;52.968;8.844;2024-02-26T02:55:10;33.47;;;23.92;;
20890;SDS011;10605;52.968;8.844;2024-02-26T02:57:36;30.98;;;22.67;;
20890;SDS011;10605;52.968;8.844;2024-02-26T03:00:09;33.03;;;21.92;;
20890;SDS011;10605;52.968;8.844;2024-02-26T03:02:35;27.83;;;21.52;;
20890;SDS011;10605;52.968;8.844;2024-02-26T03:05:01;32.97;;;23.33;;
20890;SDS011;10605;52.968;8.844;2024-02-26T03:07:30;30.55;;;21.88;;
20890;SDS011;10605;52.968;8.844;2024-02-26T03:09:56;28.65;;;22.05;;
20890;SDS011;10605;52.968;8.844;2024-02-26T03:12:22;27.52;;;22.00;;
20890;SDS011;10605;52.968;8.844;2024-02-26T03:14:47;33.45;;;22.52;;
20890;SDS011;10605;52.968;8.844;2024-02-26T03:17:13;28.90;;;22.33;;
20890;SDS011;10605;52.968;8.844;2024-02-26T03:19:39;31.05;;;22.40;;
20890;SDS011;10605;52.968;8.844;2024-02-26T03:22:04;30.88;;;22.58;;
20890;SDS011;10605;52.968;8.844;2024-02-26T03:24:30;35.20;;;23.73;;
20890;SDS011;10605;52.968;8.844;2024-02-26T03:26:56;32.45;;;24.30;;
20890;SDS011;10605;52.968;8.844;2024-02-26T03:29:22;34.88;;;25.08;;
20890;SDS011;10605;52.968;8.844;2024-02-26T03:31:48;32.47;;;23.80;;
20890;SDS011;10605;52.968;8.844;2024-02-26T03:34:13;30.80;;;22.80;;
20890;SDS011;10605;52.968;8.844;2024-02-26T03:36:39;32.88;;;24.05;;
20890;SDS011;10605;52.968;8.844;2024-02-26T03:39:06;30.38;;;23.17;;
20890;SDS011;10605;52.968;8.844;2024-02-26T03:41:35;32.13;;;23.73;;
20890;SDS011;10605;52.968;8.844;2024-02-26T03:44:01;31.20;;;22.80;;
20890;SDS011;10605;52.968;8.844;2024-02-26T03:46:27;32.17;;;22.83;;
20890;SDS011;10605;52.968;8.844;2024-02-26T03:48:52;31.92;;;23.60;;
20890;SDS011;10605;52.968;8.844;2024-02-26T03:51:18;29.50;;;22.45;;
20890;SDS011;10605;52.968;8.844;2024-02-26T03:53:44;27.95;;;21.65;;
20890;SDS011;10605;52.968;8.844;2024-02-26T03:56:11;28.42;;;22.40;;
20890;SDS011;10605;52.968;8.844;2024-02-26T03:58:40;29.98;;;22.48;;
20890;SDS011;10605;52.968;8.844;2024-02-26T04:01:07;29.73;;;23.13;;
20890;SDS011;10605;52.968;8.844;2024-02-26T04:03:34;33.03;;;23.73;;
20890;SDS011;10605;52.968;8.844;2024-02-26T04:06:00;31.40;;;23.48;;
20890;SDS011;10605;52.968;8.844;2024-02-26T04:08:26;32.55;;;23.48;;
20890;SDS011;10605;52.968;8.844;2024-02-26T04:10:51;29.90;;;23.23;;
20890;SDS011;10605;52.968;8.844;2024-02-26T04:13:17;31.02;;;22.85;;
20890;SDS011;10605;52.968;8.844;2024-02-26T04:15:43;31.23;;;23.50;;
20890;SDS011;10605;52.968;8.844;2024-02-26T04:18:09;36.05;;;24.80;;
20890;SDS011;10605;52.968;8.844;2024-02-26T04:20:34;34.80;;;24.90;;
20890;SDS011;10605;52.968;8.844;2024-02-26T04:23:00;32.42;;;24.23;;
20890;SDS011;10605;52.968;8.844;2024-02-26T04:25:26;32.55;;;24.33;;
20890;SDS011;10605;52.968;8.844;2024-02-26T04:27:52;37.33;;;25.42;;
20890;SDS011;10605;52.968;8.844;2024-02-26T04:30:17;32.92;;;24.20;;
20890;SDS011;10605;52.968;8.844;2024-02-26T04:32:43;37.65;;;26.63;;
20890;SDS011;10605;52.968;8.844;2024-02-26T04:35:09;38.03;;;25.33;;
20890;SDS011;10605;52.968;8.844;2024-02-26T04:37:35;40.42;;;27.05;;
20890;SDS011;10605;52.968;8.844;2024-02-26T04:40:00;36.28;;;25.63;;
20890;SDS011;10605;52.968;8.844;2024-02-26T04:42:26;39.22;;;26.88;;
20890;SDS011;10605;52.968;8.844;2024-02-26T04:44:52;39.10;;;26.13;;
20890;SDS011;10605;52.968;8.844;2024-02-26T04:47:19;42.13;;;27.77;;
20890;SDS011;10605;52.968;8.844;2024-02-26T04:49:44;42.15;;;28.52;;
20890;SDS011;10605;52.968;8.844;2024-02-26T04:52:11;39.40;;;27.00;;
20890;SDS011;10605;52.968;8.844;2024-02-26T04:54:37;39.08;;;26.40;;
20890;SDS011;10605;52.968;8.844;2024-02-26T04:57:02;37.95;;;27.55;;
20890;SDS011;10605;52.968;8.844;2024-02-26T04:59:28;40.10;;;26.42;;
20890;SDS011;10605;52.968;8.844;2024-02-26T05:01:54;42.88;;;27.35;;
20890;SDS011;10605;52.968;8.844;2024-02-26T05:04:20;38.40;;;27.13;;
20890;SDS011;10605;52.968;8.844;2024-02-26T05:06:46;38.28;;;26.67;;
20890;SDS011;10605;52.968;8.844;2024-02-26T05:09:12;43.97;;;27.88;;
20890;SDS011;10605;52.968;8.844;2024-02-26T05:11:37;37.60;;;26.90;;
20890;SDS011;10605;52.968;8.844;2024-02-26T05:14:03;40.45;;;27.52;;
20890;SDS011;10605;52.968;8.844;2024-02-26T05:16:29;35.83;;;26.73;;
20890;SDS011;10605;52.968;8.844;2024-02-26T05:18:56;35.30;;;26.08;;
20890;SDS011;10605;52.968;8.844;2024-02-26T05:21:21;39.25;;;27.38;;
20890;SDS011;10605;52.968;8.844;2024-02-26T05:23:49;36.28;;;26.10;;
20890;SDS011;10605;52.968;8.844;2024-02-26T05:26:22;35.42;;;25.20;;
20890;SDS011;10605;52.968;8.844;2024-02-26T05:28:48;35.75;;;25.42;;
20890;SDS011;10605;52.968;8.844;2024-02-26T05:31:14;39.25;;;27.02;;
20890;SDS011;10605;52.968;8.844;2024-02-26T05:33:40;37.67;;;26.27;;
20890;SDS011;10605;52.968;8.844;2024-02-26T05:36:06;33.15;;;25.23;;
20890;SDS011;10605;52.968;8.844;2024-02-26T05:38:31;39.25;;;26.63;;
20890;SDS011;10605;52.968;8.844;2024-02-26T05:41:00;37.92;;;26.15;;
20890;SDS011;10605;52.968;8.844;2024-02-26T05:43:26;36.88;;;25.42;;
20890;SDS011;10605;52.968;8.844;2024-02-26T05:45:52;40.58;;;25.52;;
20890;SDS011;10605;52.968;8.844;2024-02-26T05:48:18;40.67;;;25.92;;
20890;SDS011;10605;52.968;8.844;2024-02-26T05:50:44;38.55;;;26.13;;
20890;SDS011;10605;52.968;8.844;2024-02-26T05:53:11;37.88;;;25.73;;
20890;SDS011;10605;52.968;8.844;2024-02-26T05:55:36;38.67;;;25.33;;
20890;SDS011;10605;52.968;8.844;2024-02-26T05:58:02;35.17;;;24.58;;
20890;SDS011;10605;52.968;8.844;2024-02-26T06:00:28;37.10;;;24.58;;
20890;SDS011;10605;52.968;8.844;2024-02-26T06:02:54;35.40;;;24.83;;
20890;SDS011;10605;52.968;8.844;2024-02-26T06:05:19;38.33;;;25.17;;
20890;SDS011;10605;52.968;8.844;2024-02-26T06:07:45;38.35;;;24.95;;
20890;SDS011;10605;52.968;8.844;2024-02-26T06:10:11;37.67;;;25.65;;
20890;SDS011;10605;52.968;8.844;2024-02-26T06:12:38;36.63;;;25.55;;
20890;SDS011;10605;52.968;8.844;2024-02-26T06:15:05;40.17;;;26.80;;
20890;SDS011;10605;52.968;8.844;2024-02-26T06:17:31;42.15;;;26.70;;
20890;SDS011;10605;52.968;8.844;2024-02-26T06:19:57;45.17;;;26.98;;
20890;SDS011;10605;52.968;8.844;2024-02-26T06:22:24;42.40;;;27.27;;
20890;SDS011;10605;52.968;8.844;2024-02-26T06:24:50;42.17;;;27.05;;
20890;SDS011;10605;52.968;8.844;2024-02-26T06:27:16;45.47;;;28.17;;
20890;SDS011;10605;52.968;8.844;2024-02-26T06:29:41;45.15;;;26.85;;
20890;SDS011;10605;52.968;8.844;2024-02-26T06:32:07;43.50;;;26.73;;
20890;SDS011;10605;52.968;8.844;2024-02-26T06:34:32;46.38;;;27.08;;
20890;SDS011;10605;52.968;8.844;2024-02-26T06:36:58;43.45;;;27.42;;
20890;SDS011;10605;52.968;8.844;2024-02-26T06:39:24;44.70;;;27.58;;
20890;SDS011;10605;52.968;8.844;2024-02-26T06:41:49;47.40;;;28.23;;
20890;SDS011;10605;52.968;8.844;2024-02-26T06:44:15;46.63;;;27.98;;
20890;SDS011;10605;52.968;8.844;2024-02-26T06:46:41;48.05;;;27.95;;
20890;SDS011;10605;52.968;8.844;2024-02-26T06:49:06;47.08;;;27.58;;
20890;SDS011;10605;52.968;8.844;2024-02-26T06:51:32;48.88;;;29.25;;
20890;SDS011;10605;52.968;8.844;2024-02-26T06:53:58;52.22;;;29.17;;
20890;SDS011;10605;52.968;8.844;2024-02-26T06:56:23;50.50;;;28.83;;
20890;SDS011;10605;52.968;8.844;2024-02-26T06:58:49;54.72;;;29.17;;
20890;SDS011;10605;52.968;8.844;2024-02-26T07:01:14;47.03;;;27.33;;
20890;SDS011;10605;52.968;8.844;2024-02-26T07:03:40;52.10;;;30.27;;
20890;SDS011;10605;52.968;8.844;2024-02-26T07:06:06;56.30;;;31.48;;
20890;SDS011;10605;52.968;8.844;2024-02-26T07:08:32;50.38;;;30.13;;
20890;SDS011;10605;52.968;8.844;2024-02-26T07:10:57;50.80;;;31.05;;
20890;SDS011;10605;52.968;8.844;2024-02-26T07:13:23;48.45;;;30.05;;
20890;SDS011;10605;52.968;8.844;2024-02-26T07:15:49;48.35;;;30.52;;
20890;SDS011;10605;52.968;8.844;2024-02-26T07:18:14;51.17;;;30.38;;
20890;SDS011;10605;52.968;8.844;2024-02-26T07:20:40;48.30;;;29.15;;
20890;SDS011;10605;52.968;8.844;2024-02-26T07:23:06;45.63;;;29.40;;
20890;SDS011;10605;52.968;8.844;2024-02-26T07:25:32;45.80;;;29.23;;
20890;SDS011;10605;52.968;8.844;2024-02-26T07:27:57;42.50;;;29.25;;
20890;SDS011;10605;52.968;8.844;2024-02-26T07:30:23;47.88;;;29.70;;
20890;SDS011;10605;52.968;8.844;2024-02-26T07:32:49;39.08;;;27.55;;
20890;SDS011;10605;52.968;8.844;2024-02-26T07:35:15;47.88;;;30.83;;
20890;SDS011;10605;52.968;8.844;2024-02-26T07:37:42;44.55;;;28.55;;
20890;SDS011;10605;52.968;8.844;2024-02-26T07:40:08;46.13;;;29.40;;
20890;SDS011;10605;52.968;8.844;2024-02-26T07:42:34;48.08;;;30.65;;
20890;SDS011;10605;52.968;8.844;2024-02-26T07:45:00;48.53;;;30.60;;
20890;SDS011;10605;52.968;8.844;2024-02-26T07:47:27;44.47;;;30.35;;
20890;SDS011;10605;52.968;8.844;2024-02-26T07:49:52;47.25;;;31.45;;
20890;SDS011;10605;52.968;8.844;2024-02-26T07:52:18;49.80;;;31.38;;
20890;SDS011;10605;52.968;8.844;2024-02-26T07:54:43;49.85;;;31.55;;
20890;SDS011;10605;52.968;8.844;2024-02-26T07:57:09;49.53;;;31.10;;
20890;SDS011;10605;52.968;8.844;2024-02-26T07:59:35;50.22;;;32.03;;
20890;SDS011;10605;52.968;8.844;2024-02-26T08:02:00;50.72;;;31.50;;
20890;SDS011;10605;52.968;8.844;2024-02-26T08:04:28;50.13;;;32.38;;
20890;SDS011;10605;52.968;8.844;2024-02-26T08:06:54;46.88;;;31.23;;
20890;SDS011;10605;52.968;8.844;2024-02-26T08:09:19;48.85;;;31.25;;
20890;SDS011;10605;52.968;8.844;2024-02-26T08:11:45;47.88;;;29.63;;
20890;SDS011;10605;52.968;8.844;2024-02-26T08:14:11;58.33;;;30.52;;
20890;SDS011;10605;52.968;8.844;2024-02-26T08:16:36;48.95;;;31.02;;
20890;SDS011;10605;52.968;8.844;2024-02-26T08:19:02;48.17;;;29.70;;
20890;SDS011;10605;52.968;8.844;2024-02-26T08:21:28;47.05;;;29.67;;
20890;SDS011;10605;52.968;8.844;2024-02-26T08:23:54;47.25;;;30.15;;
20890;SDS011;10605;52.968;8.844;2024-02-26T08:26:20;46.67;;;29.70;;
20890;SDS011;10605;52.968;8.844;2024-02-26T08:28:47;47.10;;;29.23;;
20890;SDS011;10605;52.968;8.844;2024-02-26T08:31:14;46.85;;;29.52;;
20890;SDS011;10605;52.968;8.844;2024-02-26T08:33:39;48.33;;;30.75;;
20890;SDS011;10605;52.968;8.844;2024-02-26T08:36:05;47.95;;;30.10;;
20890;SDS011;10605;52.968;8.844;2024-02-26T08:38:31;43.33;;;28.60;;
20890;SDS011;10605;52.968;8.844;2024-02-26T08:40:59;41.13;;;27.75;;
20890;SDS011;10605;52.968;8.844;2024-02-26T08:43:26;41.70;;;28.60;;
20890;SDS011;10605;52.968;8.844;2024-02-26T08:45:52;39.72;;;26.75;;
20890;SDS011;10605;52.968;8.844;2024-02-26T08:48:18;40.35;;;26.10;;
20890;SDS011;10605;52.968;8.844;2024-02-26T08:50:43;38.65;;;25.95;;
20890;SDS011;10605;52.968;8.844;2024-02-26T08:53:09;31.25;;;22.77;;
20890;SDS011;10605;52.968;8.844;2024-02-26T08:55:35;33.70;;;23.75;;
20890;SDS011;10605;52.968;8.844;2024-02-26T08:58:00;30.30;;;22.15;;
20890;SDS011;10605;52.968;8.844;2024-02-26T09:00:26;29.48;;;22.27;;
20890;SDS011;10605;52.968;8.844;2024-02-26T09:02:51;27.52;;;20.67;;
20890;SDS011;10605;52.968;8.844;2024-02-26T09:05:17;25.80;;;20.30;;
20890;SDS011;10605;52.968;8.844;2024-02-26T09:07:43;26.42;;;19.90;;
20890;SDS011;10605;52.968;8.844;2024-02-26T09:10:09;24.83;;;19.45;;
20890;SDS011;10605;52.968;8.844;2024-02-26T09:12:36;24.35;;;18.85;;
20890;SDS011;10605;52.968;8.844;2024-02-26T09:15:03;23.88;;;19.23;;
20890;SDS011;10605;52.968;8.844;2024-02-26T09:17:29;28.90;;;20.00;;
20890;SDS011;10605;52.968;8.844;2024-02-26T09:19:54;25.67;;;19.73;;
20890;SDS011;10605;52.968;8.844;2024-02-26T09:22:20;25.23;;;18.73;;
20890;SDS011;10605;52.968;8.844;2024-02-26T09:24:46;24.73;;;18.98;;
20890;SDS011;10605;52.968;8.844;2024-02-26T09:27:11;26.30;;;19.23;;
20890;SDS011;10605;52.968;8.844;2024-02-26T09:29:37;22.38;;;18.63;;
20890;SDS011;10605;52.968;8.844;2024-02-26T09:32:03;23.02;;;18.45;;
20890;SDS011;10605;52.968;8.844;2024-02-26T09:34:29;21.92;;;17.92;;
20890;SDS011;10605;52.968;8.844;2024-02-26T09:36:54;22.60;;;17.70;;
20890;SDS011;10605;52.968;8.844;2024-02-26T09:39:20;21.48;;;17.63;;
20890;SDS011;10605;52.968;8.844;2024-02-26T09:41:47;20.70;;;16.92;;
20890;SDS011;10605;52.968;8.844;2024-02-26T09:44:15;19.73;;;16.35;;
20890;SDS011;10605;52.968;8.844;2024-02-26T09:46:45;22.60;;;17.42;;
20890;SDS011;10605;52.968;8.844;2024-02-26T09:49:14;20.50;;;16.70;;
20890;SDS011;10605;52.968;8.844;2024-02-26T09:51:40;21.60;;;16.80;;
20890;SDS011;10605;52.968;8.844;2024-02-26T09:54:07;19.25;;;16.08;;
20890;SDS011;10605;52.968;8.844;2024-02-26T09:56:35;19.27;;;15.95;;
20890;SDS011;10605;52.968;8.844;2024-02-26T09:59:04;20.05;;;15.95;;
20890;SDS011;10605;52.968;8.844;2024-02-26T10:01:35;23.02;;;16.80;;
20890;SDS011;10605;52.968;8.844;2024-02-26T10:04:03;17.42;;;14.88;;
20890;SDS011;10605;52.968;8.844;2024-02-26T10:06:29;21.20;;;16.08;;
20890;SDS011;10605;52.968;8.844;2024-02-26T10:08:56;19.45;;;15.25;;
20890;SDS011;10605;52.968;8.844;2024-02-26T10:11:23;18.42;;;15.75;;
20890;SDS011;10605;52.968;8.844;2024-02-26T10:13:50;19.83;;;15.43;;
20890;SDS011;10605;52.968;8.844;2024-02-26T10:16:16;17.50;;;14.65;;
20890;SDS011;10605;52.968;8.844;2024-02-26T10:18:48;17.65;;;14.05;;
20890;SDS011;10605;52.968;8.844;2024-02-26T10:21:18;18.30;;;14.93;;
20890;SDS011;10605;52.968;8.844;2024-02-26T10:23:47;17.35;;;13.65;;
20890;SDS011;10605;52.968;8.844;2024-02-26T10:26:15;16.42;;;13.20;;
20890;SDS011;10605;52.968;8.844;2024-02-26T10:28:41;17.85;;;13.68;;
20890;SDS011;10605;52.968;8.844;2024-02-26T10:31:09;17.05;;;13.27;;
20890;SDS011;10605;52.968;8.844;2024-02-26T10:33:36;17.10;;;14.10;;
20890;SDS011;10605;52.968;8.844;2024-02-26T10:36:03;15.73;;;12.77;;
20890;SDS011;10605;52.968;8.844;2024-02-26T10:38:30;15.05;;;12.88;;
20890;SDS011;10605;52.968;8.844;2024-02-26T10:40:57;14.35;;;12.50;;
20890;SDS011;10605;52.968;8.844;2024-02-26T10:43:25;16.23;;;12.50;;
20890;SDS011;10605;52.968;8.844;2024-02-26T10:45:51;14.52;;;12.98;;
20890;SDS011;10605;52.968;8.844;2024-02-26T10:48:17;15.40;;;12.75;;
20890;SDS011;10605;52.968;8.844;2024-02-26T10:50:43;15.38;;;12.93;;
20890;SDS011;10605;52.968;8.844;2024-02-26T10:53:31;17.67;;;12.82;;
20890;SDS011;10605;52.968;8.844;2024-02-26T10:56:03;30.48;;;12.63;;
20890;SDS011;10605;52.968;8.844;2024-02-26T10:58:31;12.30;;;11.02;;
20890;SDS011;10605;52.968;8.844;2024-02-26T11:00:57;12.55;;;11.15;;
20890;SDS011;10605;52.968;8.844;2024-02-26T11:03:24;12.10;;;10.75;;
20890;SDS011;10605;52.968;8.844;2024-02-26T11:05:51;12.13;;;10.77;;
20890;SDS011;10605;52.968;8.844;2024-02-26T11:08:21;16.48;;;11.52;;
20890;SDS011;10605;52.968;8.844;2024-02-26T11:10:50;12.20;;;10.93;;
20890;SDS011;10605;52.968;8.844;2024-02-26T11:13:18;10.88;;;9.80;;
20890;SDS011;10605;52.968;8.844;2024-02-26T11:15:47;11.02;;;8.73;;
20890;SDS011;10605;52.968;8.844;2024-02-26T11:18:14;10.25;;;9.23;;
20890;SDS011;10605;52.968;8.844;2024-02-26T11:20:41;10.57;;;9.38;;
20890;SDS011;10605;52.968;8.844;2024-02-26T11:23:08;14.50;;;8.90;;
20890;SDS011;10605;52.968;8.844;2024-02-26T11:25:34;9.38;;;8.43;;
20890;SDS011;10605;52.968;8.844;2024-02-26T11:28:03;11.68;;;8.65;;
20890;SDS011;10605;52.968;8.844;2024-02-26T11:30:32;9.38;;;8.45;;
20890;SDS011;10605;52.968;8.844;2024-02-26T11:33:04;8.60;;;7.75;;
20890;SDS011;10605;52.968;8.844;2024-02-26T11:35:34;9.48;;;8.40;;
20890;SDS011;10605;52.968;8.844;2024-02-26T11:38:03;8.40;;;7.70;;
20890;SDS011;10605;52.968;8.844;2024-02-26T11:40:30;9.93;;;7.63;;
20890;SDS011;10605;52.968;8.844;2024-02-26T11:42:57;27.95;;;9.30;;
20890;SDS011;10605;52.968;8.844;2024-02-26T11:48:20;8.05;;;7.25;;
20890;SDS011;10605;52.968;8.844;2024-02-26T11:50:57;7.82;;;7.15;;
20890;SDS011;10605;52.968;8.844;2024-02-26T11:53:25;6.82;;;6.22;;
20890;SDS011;10605;52.968;8.844;2024-02-26T12:01:38;9.45;;;7.15;;
20890;SDS011;10605;52.968;8.844;2024-02-26T12:06:44;7.00;;;6.40;;
20890;SDS011;10605;52.968;8.844;2024-02-26T12:09:11;6.70;;;6.20;;
20890;SDS011;10605;52.968;8.844;2024-02-26T12:11:38;7.43;;;6.32;;
20890;SDS011;10605;52.968;8.844;2024-02-26T12:14:08;7.38;;;6.78;;
20890;SDS011;10605;52.968;8.844;2024-02-26T12:16:38;6.60;;;6.10;;
20890;SDS011;10605;52.968;8.844;2024-02-26T12:19:04;8.15;;;6.63;;
20890;SDS011;10605;52.968;8.844;2024-02-26T12:21:36;7.07;;;6.38;;
20890;SDS011;10605;52.968;8.844;2024-02-26T12:24:12;6.75;;;6.28;;
20890;SDS011;10605;52.968;8.844;2024-02-26T12:26:40;8.68;;;6.40;;
20890;SDS011;10605;52.968;8.844;2024-02-26T12:29:07;6.70;;;6.20;;
20890;SDS011;10605;52.968;8.844;2024-02-26T12:31:33;8.82;;;7.30;;
20890;SDS011;10605;52.968;8.844;2024-02-26T12:33:59;7.30;;;6.70;;
20890;SDS011;10605;52.968;8.844;2024-02-26T12:36:25;7.72;;;7.00;;
20890;SDS011;10605;52.968;8.844;2024-02-26T12:38:51;7.32;;;6.68;;
20890;SDS011;10605;52.968;8.844;2024-02-26T12:41:17;7.47;;;6.93;;
20890;SDS011;10605;52.968;8.844;2024-02-26T12:43:43;7.28;;;6.78;;
20890;SDS011;10605;52.968;8.844;2024-02-26T12:46:09;8.27;;;7.50;;
20890;SDS011;10605;52.968;8.844;2024-02-26T12:48:36;9.45;;;7.30;;
20890;SDS011;10605;52.968;8.844;2024-02-26T12:51:03;8.18;;;7.38;;
20890;SDS011;10605;52.968;8.844;2024-02-26T12:53:29;7.97;;;7.22;;
20890;SDS011;10605;52.968;8.844;2024-02-26T12:55:55;8.65;;;7.32;;
20890;SDS011;10605;52.968;8.844;2024-02-26T12:58:21;8.32;;;7.63;;
20890;SDS011;10605;52.968;8.844;2024-02-26T13:00:51;8.88;;;8.07;;
20890;SDS011;10605;52.968;8.844;2024-02-26T13:03:17;8.60;;;7.90;;
20890;SDS011;10605;52.968;8.844;2024-02-26T13:05:44;9.90;;;7.53;;
20890;SDS011;10605;52.968;8.844;2024-02-26T13:08:17;9.25;;;8.45;;
20890;SDS011;10605;52.968;8.844;2024-02-26T13:10:43;9.23;;;8.45;;
20890;SDS011;10605;52.968;8.844;2024-02-26T13:13:10;9.10;;;8.30;;
20890;SDS011;10605;52.968;8.844;2024-02-26T13:15:35;9.20;;;8.40;;
20890;SDS011;10605;52.968;8.844;2024-02-26T13:18:08;10.25;;;9.32;;
20890;SDS011;10605;52.968;8.844;2024-02-26T13:20:35;9.85;;;8.95;;
20890;SDS011;10605;52.968;8.844;2024-02-26T13:25:30;10.43;;;9.45;;
20890;SDS011;10605;52.968;8.844;2024-02-26T13:28:06;10.50;;;9.32;;
20890;SDS011;10605;52.968;8.844;2024-02-26T13:30:41;10.40;;;9.38;;
20890;SDS011;10605;52.968;8.844;2024-02-26T13:33:07;9.82;;;8.93;;
20890;SDS011;10605;52.968;8.844;2024-02-26T13:35:34;10.48;;;9.48;;
20890;SDS011;10605;52.968;8.844;2024-02-26T13:38:01;10.05;;;9.05;;
20890;SDS011;10605;52.968;8.844;2024-02-26T13:40:27;9.98;;;9.07;;
20890;SDS011;10605;52.968;8.844;2024-02-26T13:42:54;10.23;;;9.30;;
20890;SDS011;10605;52.968;8.844;2024-02-26T13:45:20;10.38;;;9.43;;
20890;SDS011;10605;52.968;8.844;2024-02-26T13:47:45;11.40;;;10.27;;
20890;SDS011;10605;52.968;8.844;2024-02-26T13:50:11;10.65;;;9.73;;
20890;SDS011;10605;52.968;8.844;2024-02-26T13:52:37;10.70;;;9.60;;
20890;SDS011;10605;52.968;8.844;2024-02-26T13:55:03;12.88;;;10.45;;
20890;SDS011;10605;52.968;8.844;2024-02-26T13:57:28;11.13;;;10.18;;
20890;SDS011;10605;52.968;8.844;2024-02-26T13:59:55;14.73;;;10.05;;
20890;SDS011;10605;52.968;8.844;2024-02-26T14:02:20;12.25;;;10.98;;
20890;SDS011;10605;52.968;8.844;2024-02-26T14:04:46;11.07;;;9.82;;
20890;SDS011;10605;52.968;8.844;2024-02-26T14:07:12;10.90;;;9.90;;
20890;SDS011;10605;52.968;8.844;2024-02-26T14:09:38;10.77;;;9.68;;
20890;SDS011;10605;52.968;8.844;2024-02-26T14:12:03;11.93;;;10.73;;
20890;SDS011;10605;52.968;8.844;2024-02-26T14:14:30;11.02;;;9.98;;
20890;SDS011;10605;52.968;8.844;2024-02-26T14:16:58;10.95;;;9.85;;
20890;SDS011;10605;52.968;8.844;2024-02-26T14:19:24;12.65;;;10.10;;
20890;SDS011;10605;52.968;8.844;2024-02-26T14:21:49;13.75;;;10.90;;
20890;SDS011;10605;52.968;8.844;2024-02-26T14:24:15;10.73;;;9.73;;
20890;SDS011;10605;52.968;8.844;2024-02-26T14:26:41;11.60;;;10.48;;
20890;SDS011;10605;52.968;8.844;2024-02-26T14:29:06;11.85;;;10.38;;
20890;SDS011;10605;52.968;8.844;2024-02-26T14:31:32;12.05;;;10.80;;
20890;SDS011;10605;52.968;8.844;2024-02-26T14:33:58;12.02;;;10.82;;
20890;SDS011;10605;52.968;8.844;2024-02-26T14:36:24;11.10;;;10.00;;